createdAt,value
2018-04-25T00:01:45.493Z,84.73
2018-04-25T00:04:11.349Z,85.20
2018-04-25T00:06:37.208Z,85.93
2018-04-25T00:09:03.106Z,86.36
2018-04-25T00:11:28.954Z,86.52
2018-04-25T00:13:54.778Z,86.14
2018-04-25T00:16:21.472Z,86.01
2018-04-25T00:18:47.312Z,85.78
2018-04-25T00:21:13.177Z,85.86
2018-04-25T00:23:39.022Z,86.23
2018-04-25T00:26:04.887Z,86.23
2018-04-25T00:28:30.731Z,86.47
2018-04-25T00:30:56.572Z,86.46
2018-04-25T00:33:22.424Z,86.60
2018-04-25T00:35:48.275Z,85.96
2018-04-25T00:38:14.130Z,86.55
2018-04-25T00:40:39.962Z,86.30
2018-04-25T00:43:05.827Z,86.29
2018-04-25T00:45:31.704Z,86.12
2018-04-25T00:47:57.584Z,86.09
2018-04-25T00:50:23.443Z,85.98
2018-04-25T00:52:49.449Z,86.56
2018-04-25T00:55:15.316Z,86.67
2018-04-25T00:57:41.167Z,86.20
2018-04-25T01:00:07.079Z,86.43
2018-04-25T01:02:32.921Z,86.26
2018-04-25T01:04:58.780Z,86.63
2018-04-25T01:07:24.642Z,86.66
2018-04-25T01:09:50.497Z,86.71
2018-04-25T01:12:16.352Z,87.36
2018-04-25T01:14:42.201Z,86.28
2018-04-25T01:17:08.102Z,86.54
2018-04-25T01:19:33.985Z,86.35
2018-04-25T01:21:59.933Z,86.60
2018-04-25T01:24:25.790Z,86.14
2018-04-25T01:26:51.717Z,85.83
2018-04-25T01:29:17.581Z,86.17
2018-04-25T01:31:58.397Z,86.03
2018-04-25T01:34:25.275Z,85.81
2018-04-25T01:37:02.331Z,86.00
2018-04-25T01:39:35.317Z,86.24
2018-04-25T01:42:01.233Z,86.08
2018-04-25T01:44:29.102Z,85.92
2018-04-25T01:46:56.841Z,85.91
2018-04-25T01:49:29.823Z,85.62
2018-04-25T01:52:08.146Z,85.35
2018-04-25T01:54:46.332Z,85.17
2018-04-25T01:57:24.612Z,84.97
2018-04-25T02:00:02.838Z,85.53
2018-04-25T02:02:28.555Z,85.28
2018-04-25T02:04:54.412Z,85.12
2018-04-25T02:07:20.249Z,85.00
2018-04-25T02:09:46.095Z,84.88
2018-04-25T02:12:11.945Z,84.71
2018-04-25T02:14:37.811Z,84.71
2018-04-25T02:17:03.656Z,84.98
2018-04-25T02:19:29.504Z,84.92
2018-04-25T02:21:55.345Z,84.95
2018-04-25T02:24:21.189Z,85.59
2018-04-25T02:26:47.044Z,85.07
2018-04-25T02:29:12.895Z,84.84
2018-04-25T02:31:38.741Z,84.68
2018-04-25T02:34:04.605Z,84.77
2018-04-25T02:36:30.458Z,84.95
2018-04-25T02:38:56.298Z,84.52
2018-04-25T02:41:22.152Z,84.69
2018-04-25T02:43:47.992Z,84.77
2018-04-25T02:46:13.849Z,84.74
2018-04-25T02:48:39.675Z,84.87
2018-04-25T02:51:05.512Z,84.88
2018-04-25T02:53:31.360Z,84.75
2018-04-25T02:55:57.207Z,84.52
2018-04-25T02:58:23.064Z,84.28
2018-04-25T03:00:48.923Z,84.57
2018-04-25T03:03:14.773Z,84.35
2018-04-25T03:05:40.598Z,84.21
2018-04-25T03:08:06.451Z,84.07
2018-04-25T03:10:32.300Z,84.32
2018-04-25T03:12:58.168Z,84.50
2018-04-25T03:15:24.048Z,84.50
2018-04-25T03:17:49.882Z,84.20
2018-04-25T03:20:15.725Z,84.02
2018-04-25T03:22:41.575Z,83.93
2018-04-25T03:25:07.415Z,83.95
2018-04-25T03:27:33.250Z,83.62
2018-04-25T03:29:59.099Z,82.61
2018-04-25T03:32:24.935Z,81.41
2018-04-25T03:34:50.776Z,81.04
2018-04-25T03:37:16.615Z,80.46
2018-04-25T03:39:42.489Z,79.81
2018-04-25T03:42:08.342Z,79.89
2018-04-25T03:44:34.193Z,79.42
2018-04-25T03:47:00.059Z,79.06
2018-04-25T03:49:25.907Z,78.52
2018-04-25T03:51:51.761Z,78.49
2018-04-25T03:54:17.596Z,78.33
2018-04-25T03:56:43.430Z,78.34
2018-04-25T03:59:09.271Z,78.03
2018-04-25T04:01:35.143Z,77.67
2018-04-25T04:04:00.981Z,77.55
2018-04-25T04:06:26.834Z,77.55
2018-04-25T04:08:52.670Z,77.45
2018-04-25T04:11:18.548Z,77.56
2018-04-25T04:13:44.444Z,77.59
2018-04-25T04:16:10.285Z,77.58
2018-04-25T04:18:36.160Z,77.58
2018-04-25T04:21:01.999Z,77.49
2018-04-25T04:23:27.845Z,77.59
2018-04-25T04:25:53.708Z,77.39
2018-04-25T04:28:19.564Z,77.46
2018-04-25T04:30:45.423Z,77.32
2018-04-25T04:33:11.253Z,77.11
2018-04-25T04:35:37.124Z,76.96
2018-04-25T04:38:03.001Z,76.97
2018-04-25T04:40:28.849Z,76.94
2018-04-25T04:42:54.700Z,76.63
2018-04-25T04:45:35.527Z,76.59
2018-04-25T04:48:01.365Z,76.62
2018-04-25T04:50:27.209Z,76.58
2018-04-25T04:52:53.089Z,76.46
2018-04-25T04:55:18.924Z,76.03
2018-04-25T04:57:44.766Z,76.13
2018-04-25T05:00:10.619Z,75.73
2018-04-25T05:02:36.466Z,75.59
2018-04-25T05:05:02.289Z,75.48
2018-04-25T05:07:28.147Z,75.12
2018-04-25T05:09:53.979Z,75.17
2018-04-25T05:12:19.851Z,74.99
2018-04-25T05:14:45.705Z,75.23
2018-04-25T05:17:11.556Z,74.97
2018-04-25T05:19:37.399Z,74.83
2018-04-25T05:22:03.255Z,74.70
2018-04-25T05:24:29.192Z,74.84
2018-04-25T05:26:55.010Z,74.72
2018-04-25T05:29:20.880Z,74.92
2018-04-25T05:31:46.762Z,74.52
2018-04-25T05:34:12.612Z,74.73
2018-04-25T05:36:38.460Z,74.72
2018-04-25T05:39:04.304Z,74.47
2018-04-25T05:41:30.177Z,74.67
2018-04-25T05:43:56.044Z,74.58
2018-04-25T05:46:21.898Z,74.66
2018-04-25T05:48:47.759Z,75.03
2018-04-25T05:51:13.632Z,75.16
2018-04-25T05:53:39.480Z,75.26
2018-04-25T05:56:05.326Z,75.51
2018-04-25T05:58:31.171Z,75.65
2018-04-25T06:00:57.089Z,75.77
2018-04-25T06:03:22.897Z,75.98
2018-04-25T06:05:48.734Z,76.09
2018-04-25T06:08:14.607Z,76.17
2018-04-25T06:10:40.467Z,76.30
2018-04-25T06:13:06.315Z,76.20
2018-04-25T06:15:32.182Z,76.34
2018-04-25T06:17:58.052Z,76.17
2018-04-25T06:20:24.026Z,76.04
2018-04-25T06:22:49.828Z,76.39
2018-04-25T06:25:15.675Z,76.26
2018-04-25T06:27:41.514Z,76.02
2018-04-25T06:30:07.379Z,75.98
2018-04-25T06:32:33.222Z,75.77
2018-04-25T06:34:59.080Z,75.54
2018-04-25T06:37:24.946Z,75.11
2018-04-25T06:39:50.825Z,74.59
2018-04-25T06:42:16.672Z,74.35
2018-04-25T06:44:42.521Z,74.45
2018-04-25T06:47:08.377Z,74.39
2018-04-25T06:49:34.250Z,73.94
2018-04-25T06:52:00.101Z,73.80
2018-04-25T06:54:25.960Z,73.95
2018-04-25T06:56:52.439Z,73.73
2018-04-25T06:59:18.242Z,73.00
2018-04-25T07:01:44.083Z,72.85
2018-04-25T07:04:09.915Z,73.45
2018-04-25T07:06:35.754Z,72.93
2018-04-25T07:09:01.579Z,73.28
2018-04-25T07:11:27.464Z,73.64
2018-04-25T07:13:53.318Z,73.39
2018-04-25T07:16:19.236Z,73.79
2018-04-25T07:18:45.100Z,73.66
2018-04-25T07:21:10.960Z,73.45
2018-04-25T07:23:37.603Z,73.13
2018-04-25T07:26:03.451Z,73.38
2018-04-25T07:28:29.298Z,73.04
2018-04-25T07:30:55.161Z,73.41
2018-04-25T07:33:21.005Z,73.12
2018-04-25T07:35:46.868Z,73.34
2018-04-25T07:38:12.711Z,72.70
2018-04-25T07:40:38.555Z,72.91
2018-04-25T07:43:04.426Z,73.21
2018-04-25T07:45:30.307Z,72.89
2018-04-25T07:47:56.141Z,72.82
2018-04-25T07:50:21.985Z,72.34
2018-04-25T07:52:47.859Z,69.81
2018-04-25T07:55:13.682Z,68.80
2018-04-25T07:57:39.585Z,66.73
2018-04-25T08:00:05.427Z,66.10
2018-04-25T08:02:31.288Z,65.37
2018-04-25T08:04:57.147Z,65.50
2018-04-25T08:07:23.003Z,65.68
2018-04-25T08:09:48.851Z,65.54
2018-04-25T08:12:27.200Z,65.69
2018-04-25T08:15:05.482Z,66.12
2018-04-25T08:17:43.704Z,66.40
2018-04-25T08:20:21.750Z,67.47
2018-04-25T08:22:47.597Z,70.38
2018-04-25T08:25:14.190Z,74.53
2018-04-25T08:27:40.025Z,78.45
2018-04-25T08:30:05.874Z,82.27
2018-04-25T08:32:31.719Z,85.18
2018-04-25T08:34:57.571Z,87.55
2018-04-25T08:37:23.436Z,89.08
2018-04-25T08:39:49.301Z,89.27
2018-04-25T08:42:15.169Z,89.92
2018-04-25T08:44:41.105Z,90.04
2018-04-25T08:47:06.887Z,90.94
2018-04-25T08:49:32.776Z,90.50
2018-04-25T08:51:58.635Z,90.43
2018-04-25T08:54:24.485Z,90.24
2018-04-25T08:56:50.367Z,89.80
2018-04-25T08:59:16.311Z,89.46
2018-04-25T09:01:42.100Z,88.63
2018-04-25T09:04:07.974Z,87.59
2018-04-25T09:06:33.822Z,86.93
2018-04-25T09:08:59.680Z,85.22
2018-04-25T09:11:25.523Z,84.06
2018-04-25T09:13:51.367Z,84.35
2018-04-25T09:16:17.238Z,83.76
2018-04-25T09:18:43.098Z,82.59
2018-04-25T09:21:08.967Z,82.38
2018-04-25T09:23:34.841Z,81.85
2018-04-25T09:26:15.638Z,79.88
2018-04-25T09:28:41.612Z,79.42
2018-04-25T09:31:07.461Z,79.24
2018-04-25T09:33:33.329Z,78.84
2018-04-25T09:35:59.167Z,77.79
2018-04-25T09:38:25.019Z,77.85
2018-04-25T09:40:50.869Z,77.03
2018-04-25T09:43:16.703Z,77.52
2018-04-25T09:45:42.564Z,75.02
2018-04-25T09:48:08.410Z,73.93
2018-04-25T09:50:34.253Z,71.55
2018-04-25T09:53:00.131Z,69.60
2018-04-25T09:55:25.979Z,69.28
2018-04-25T09:57:51.844Z,69.25
2018-04-25T10:00:17.718Z,69.26
2018-04-25T10:02:43.611Z,69.86
2018-04-25T10:05:09.447Z,70.60
2018-04-25T10:07:35.297Z,72.24
2018-04-25T10:10:01.799Z,73.18
2018-04-25T10:12:27.676Z,75.41
2018-04-25T10:14:53.518Z,76.13
2018-04-25T10:17:19.431Z,76.27
2018-04-25T10:19:45.253Z,77.98
2018-04-25T10:22:11.087Z,75.67
2018-04-25T10:24:36.928Z,73.73
2018-04-25T10:27:02.803Z,72.58
2018-04-25T10:29:28.647Z,72.72
2018-04-25T10:31:54.567Z,72.13
2018-04-25T10:34:20.372Z,70.16
2018-04-25T10:36:46.224Z,69.11
2018-04-25T10:39:12.091Z,69.90
2018-04-25T10:41:38.768Z,69.95
2018-04-25T10:44:04.660Z,70.46
2018-04-25T10:46:30.535Z,70.95
2018-04-25T10:48:56.384Z,71.69
2018-04-25T10:51:22.232Z,70.07
2018-04-25T10:53:48.118Z,68.08
2018-04-25T10:56:13.945Z,67.23
2018-04-25T10:58:39.783Z,65.48
2018-04-25T11:01:05.684Z,65.68
2018-04-25T11:03:31.519Z,62.84
2018-04-25T11:05:57.390Z,63.21
2018-04-25T11:08:23.271Z,63.04
2018-04-25T11:10:49.134Z,60.72
2018-04-25T11:13:14.995Z,59.78
2018-04-25T11:15:40.833Z,60.11
2018-04-25T11:18:06.661Z,59.06
2018-04-25T11:20:32.523Z,60.74
2018-04-25T11:22:58.373Z,58.64
2018-04-25T11:25:24.216Z,57.88
2018-04-25T11:27:50.076Z,56.11
2018-04-25T11:30:15.922Z,55.36
2018-04-25T11:32:41.762Z,55.18
2018-04-25T11:35:07.617Z,53.88
2018-04-25T11:37:33.470Z,51.50
2018-04-25T11:39:59.312Z,52.07
2018-04-25T11:42:25.230Z,51.99
2018-04-25T11:44:51.078Z,51.92
2018-04-25T11:47:17.026Z,53.53
2018-04-25T11:49:42.807Z,52.82
2018-04-25T11:52:08.655Z,52.45
2018-04-25T11:54:34.539Z,51.91
2018-04-25T11:57:00.366Z,50.69
2018-04-25T11:59:26.225Z,51.63
2018-04-25T12:01:52.083Z,52.20
2018-04-25T12:04:17.913Z,52.04
2018-04-25T12:06:43.784Z,52.07
2018-04-25T12:09:09.632Z,53.81
2018-04-25T12:11:35.527Z,54.04
2018-04-25T12:14:01.373Z,53.19
2018-04-25T12:16:27.271Z,53.91
2018-04-25T12:18:53.128Z,52.77
2018-04-25T12:21:18.970Z,52.54
2018-04-25T12:23:44.825Z,52.86
2018-04-25T12:26:10.702Z,51.93
2018-04-25T12:28:36.550Z,50.94
2018-04-25T12:31:02.424Z,50.29
2018-04-25T12:33:28.253Z,51.90
2018-04-25T12:35:54.184Z,52.20
2018-04-25T12:38:20.009Z,53.85
2018-04-25T12:40:45.879Z,53.10
2018-04-25T12:43:11.709Z,53.62
2018-04-25T12:45:37.529Z,52.64
2018-04-25T12:48:03.382Z,51.15
2018-04-25T12:50:29.200Z,51.56
2018-04-25T12:52:55.056Z,51.58
2018-04-25T12:55:20.932Z,52.32
2018-04-25T12:57:46.825Z,53.44
2018-04-25T13:00:12.699Z,53.87
2018-04-25T13:02:38.538Z,55.54
2018-04-25T13:05:04.397Z,55.82
2018-04-25T13:07:30.239Z,56.95
2018-04-25T13:09:56.102Z,58.37
2018-04-25T13:12:21.946Z,59.10
2018-04-25T13:14:47.828Z,59.23
2018-04-25T13:17:13.680Z,59.20
2018-04-25T13:19:39.535Z,59.22
2018-04-25T13:22:05.412Z,58.34
2018-04-25T13:24:31.270Z,59.91
2018-04-25T13:26:57.131Z,59.76
2018-04-25T13:29:23.005Z,58.74
2018-04-25T13:31:48.862Z,58.91
2018-04-25T13:34:14.682Z,58.71
2018-04-25T13:36:40.574Z,58.51
2018-04-25T13:39:06.416Z,58.50
2018-04-25T13:41:32.301Z,58.52
2018-04-25T13:43:58.213Z,58.69
2018-04-25T13:46:24.126Z,59.27
2018-04-25T13:48:50.003Z,58.85
2018-04-25T13:51:15.890Z,59.58
2018-04-25T13:53:41.767Z,59.68
2018-04-25T13:56:07.632Z,59.43
2018-04-25T13:58:33.527Z,59.37
2018-04-25T14:00:59.401Z,59.94
2018-04-25T14:03:25.287Z,60.34
2018-04-25T14:05:51.149Z,61.27
2018-04-25T14:08:17.009Z,61.14
2018-04-25T14:10:42.898Z,61.27
2018-04-25T14:13:08.851Z,61.31
2018-04-25T14:15:34.661Z,61.53
2018-04-25T14:18:00.541Z,61.24
2018-04-25T14:20:26.395Z,61.79
2018-04-25T14:22:52.237Z,61.47
2018-04-25T14:25:18.103Z,61.44
2018-04-25T14:27:43.967Z,61.29
2018-04-25T14:30:09.912Z,61.39
2018-04-25T14:32:35.678Z,62.09
2018-04-25T14:35:01.528Z,62.89
2018-04-25T14:37:27.412Z,61.76
2018-04-25T14:39:53.273Z,62.18
2018-04-25T14:42:19.149Z,62.26
2018-04-25T14:44:45.037Z,62.13
2018-04-25T14:47:10.888Z,62.50
2018-04-25T14:49:36.744Z,62.59
2018-04-25T14:52:02.651Z,63.17
2018-04-25T14:54:28.473Z,63.75
2018-04-25T14:56:54.371Z,63.20
2018-04-25T14:59:21.011Z,62.78
2018-04-25T15:01:46.876Z,62.10
2018-04-25T15:04:12.757Z,61.30
2018-04-25T15:06:38.623Z,61.28
2018-04-25T15:09:04.620Z,61.32
2018-04-25T15:11:30.464Z,61.67
2018-04-25T15:13:56.328Z,62.14
2018-04-25T15:16:22.196Z,62.26
2018-04-25T15:18:48.074Z,62.46
2018-04-25T15:21:13.944Z,62.48
2018-04-25T15:23:39.846Z,64.32
2018-04-25T15:26:05.721Z,65.13
2018-04-25T15:28:31.587Z,65.28
2018-04-25T15:30:57.471Z,65.52
2018-04-25T15:33:23.349Z,65.61
2018-04-25T15:35:49.241Z,64.62
2018-04-25T15:38:15.162Z,64.90
2018-04-25T15:40:41.079Z,64.78
2018-04-25T15:43:06.944Z,64.96
2018-04-25T15:45:32.811Z,65.23
2018-04-25T15:47:58.686Z,64.28
2018-04-25T15:50:24.582Z,63.70
2018-04-25T15:52:50.469Z,63.16
2018-04-25T15:55:16.317Z,61.54
2018-04-25T15:57:42.220Z,60.35
2018-04-25T16:00:08.094Z,57.34
2018-04-25T16:02:33.994Z,55.68
2018-04-25T16:04:59.865Z,57.55
2018-04-25T16:07:25.720Z,58.26
2018-04-25T16:09:51.576Z,59.40
2018-04-25T16:12:17.496Z,60.49
2018-04-25T16:14:43.352Z,61.30
2018-04-25T16:17:09.248Z,62.80
2018-04-25T16:19:35.124Z,63.55
2018-04-25T16:22:00.986Z,62.13
2018-04-25T16:24:27.486Z,54.41
2018-04-25T16:26:54.399Z,50.62
2018-04-25T16:29:20.269Z,49.17
2018-04-25T16:31:46.147Z,49.73
2018-04-25T16:34:12.052Z,50.18
2018-04-25T16:36:37.929Z,49.05
2018-04-25T16:39:04.702Z,49.34
2018-04-25T16:41:31.270Z,53.51
2018-04-25T16:43:57.211Z,56.07
2018-04-25T16:46:23.113Z,58.56
2018-04-25T16:48:49.010Z,56.72
2018-04-25T16:51:14.895Z,58.44
2018-04-25T16:53:40.776Z,60.46
2018-04-25T16:56:06.675Z,61.44
2018-04-25T16:58:32.549Z,61.63
2018-04-25T17:00:59.453Z,61.06
2018-04-25T17:03:25.337Z,60.82
2018-04-25T17:05:51.227Z,61.49
2018-04-25T17:08:17.097Z,62.01
2018-04-25T17:10:42.981Z,63.54
2018-04-25T17:13:08.865Z,63.55
2018-04-25T17:15:34.763Z,64.64
2018-04-25T17:18:00.629Z,65.16
2018-04-25T17:20:27.348Z,65.65
2018-04-25T17:22:53.877Z,65.63
2018-04-25T17:25:19.771Z,65.63
2018-04-25T17:27:45.679Z,65.10
2018-04-25T17:30:11.531Z,65.94
2018-04-25T17:32:37.448Z,64.48
2018-04-25T17:35:03.590Z,63.21
2018-04-25T17:37:29.450Z,64.61
2018-04-25T17:39:55.387Z,65.86
2018-04-25T17:42:21.326Z,66.10
2018-04-25T17:44:47.223Z,66.06
2018-04-25T17:47:13.284Z,65.67
2018-04-25T17:49:40.189Z,65.83
2018-04-25T17:52:06.851Z,66.01
2018-04-25T17:54:33.682Z,66.25
2018-04-25T17:56:59.598Z,66.49
2018-04-25T17:59:25.507Z,66.87
2018-04-25T18:01:51.381Z,67.32
2018-04-25T18:04:17.335Z,67.61
2018-04-25T18:06:43.249Z,67.20
2018-04-25T18:09:09.135Z,66.79
2018-04-25T18:11:35.145Z,67.16
2018-04-25T18:14:00.979Z,66.50
2018-04-25T18:16:27.822Z,67.26
2018-04-25T18:18:53.674Z,67.44
2018-04-25T18:21:19.565Z,67.69
2018-04-25T18:23:45.574Z,68.12
2018-04-25T18:26:11.497Z,67.61
2018-04-25T18:28:37.962Z,67.79
2018-04-25T18:31:03.858Z,68.22
2018-04-25T18:33:29.937Z,68.32
2018-04-25T18:35:55.827Z,68.72
2018-04-25T18:38:21.720Z,68.67
2018-04-25T18:40:47.784Z,69.17
2018-04-25T18:43:13.890Z,69.72
2018-04-25T18:45:39.819Z,70.11
2018-04-25T18:48:05.729Z,70.92
2018-04-25T18:50:31.653Z,70.84
2018-04-25T18:52:57.620Z,70.32
2018-04-25T18:55:23.555Z,70.31
2018-04-25T18:57:49.515Z,70.99
2018-04-25T19:00:15.441Z,70.97
2018-04-25T19:02:41.338Z,71.37
2018-04-25T19:05:07.311Z,70.67
2018-04-25T19:07:33.362Z,71.78
2018-04-25T19:09:59.299Z,71.25
2018-04-25T19:12:25.152Z,70.73
2018-04-25T19:14:51.839Z,71.60
2018-04-25T19:17:17.762Z,76.52
2018-04-25T19:19:43.634Z,79.85
2018-04-25T19:22:09.549Z,82.04
2018-04-25T19:24:35.433Z,85.78
2018-04-25T19:27:01.394Z,86.84
2018-04-25T19:29:28.088Z,86.90
2018-04-25T19:31:54.015Z,88.11
2018-04-25T19:34:19.949Z,87.92
2018-04-25T19:36:45.885Z,87.08
2018-04-25T19:39:11.846Z,86.50
2018-04-25T19:41:37.699Z,86.50
2018-04-25T19:44:04.476Z,87.32
2018-04-25T19:46:30.384Z,87.67
2018-04-25T19:48:56.330Z,86.04
2018-04-25T19:51:22.230Z,86.79
2018-04-25T19:53:48.205Z,86.99
2018-04-25T19:56:14.899Z,88.40
2018-04-25T19:58:40.790Z,89.23
2018-04-25T20:01:06.696Z,89.84
2018-04-25T20:03:32.625Z,90.63
2018-04-25T20:05:58.492Z,89.25
2018-04-25T20:08:24.517Z,90.79
2018-04-25T20:10:50.542Z,89.81
2018-04-25T20:13:16.456Z,89.78
2018-04-25T20:15:42.351Z,90.16
2018-04-25T20:18:08.177Z,89.91
2018-04-25T20:20:34.070Z,91.61
2018-04-25T20:22:59.990Z,90.91
2018-04-25T20:25:25.960Z,90.99
2018-04-25T20:27:51.872Z,91.74
2018-04-25T20:30:17.808Z,91.53
2018-04-25T20:32:44.674Z,91.48
2018-04-25T20:35:10.573Z,92.46
2018-04-25T20:37:37.023Z,91.71
2018-04-25T20:40:02.909Z,92.06
2018-04-25T20:42:28.971Z,92.17
2018-04-25T20:44:54.894Z,92.41
2018-04-25T20:47:20.835Z,92.06
2018-04-25T20:49:46.700Z,92.66
2018-04-25T20:52:12.587Z,92.79
2018-04-25T20:54:38.453Z,92.86
2018-04-25T20:57:04.299Z,92.76
2018-04-25T20:59:30.186Z,93.12
2018-04-25T21:01:56.052Z,93.00
2018-04-25T21:04:22.007Z,93.07
2018-04-25T21:06:47.886Z,92.83
2018-04-25T21:09:13.785Z,93.22
2018-04-25T21:11:39.661Z,93.24
2018-04-25T21:14:05.517Z,93.01
2018-04-25T21:16:31.386Z,91.73
2018-04-25T21:18:57.271Z,91.84
2018-04-25T21:21:23.201Z,92.01
2018-04-25T21:23:49.183Z,91.93
2018-04-25T21:26:15.026Z,92.17
2018-04-25T21:28:40.890Z,92.67
2018-04-25T21:31:06.774Z,92.67
2018-04-25T21:33:33.504Z,91.63
2018-04-25T21:35:59.361Z,92.18
2018-04-25T21:38:25.245Z,92.16
2018-04-25T21:40:51.110Z,92.34
2018-04-25T21:43:16.937Z,92.20
2018-04-25T21:45:42.812Z,92.64
2018-04-25T21:48:08.697Z,92.85
2018-04-25T21:50:34.537Z,93.19
2018-04-25T21:53:00.383Z,93.48
2018-04-25T21:55:26.222Z,93.17
2018-04-25T21:57:52.082Z,93.20
2018-04-25T22:00:17.928Z,92.90
2018-04-25T22:02:43.801Z,92.60
2018-04-25T22:05:09.634Z,93.30
2018-04-25T22:07:35.526Z,93.46
2018-04-25T22:10:01.356Z,93.79
2018-04-25T22:12:27.212Z,93.37
2018-04-25T22:14:53.084Z,94.12
2018-04-25T22:17:18.951Z,94.00
2018-04-25T22:19:44.847Z,94.38
2018-04-25T22:22:10.698Z,94.42
2018-04-25T22:24:36.578Z,93.94
2018-04-25T22:27:02.432Z,94.35
2018-04-25T22:29:28.304Z,94.30
2018-04-25T22:31:54.162Z,94.64
2018-04-25T22:34:20.012Z,94.37
2018-04-25T22:36:45.871Z,94.81
2018-04-25T22:39:11.765Z,94.97
2018-04-25T22:41:37.599Z,95.50
2018-04-25T22:44:03.443Z,95.33
2018-04-25T22:46:29.307Z,95.19
2018-04-25T22:48:55.146Z,94.95
2018-04-25T22:51:21.010Z,95.06
2018-04-25T22:53:46.899Z,95.39
2018-04-25T22:56:12.735Z,94.93
2018-04-25T22:58:38.565Z,94.90
2018-04-25T23:01:04.394Z,95.02
2018-04-25T23:03:30.227Z,94.96
2018-04-25T23:05:56.056Z,95.09
2018-04-25T23:08:21.998Z,95.15
2018-04-25T23:10:47.757Z,95.66
2018-04-25T23:13:13.611Z,95.71
2018-04-25T23:15:39.475Z,95.33
2018-04-25T23:18:05.324Z,95.51
2018-04-25T23:20:31.180Z,95.15
2018-04-25T23:22:57.060Z,95.09
2018-04-25T23:25:22.900Z,94.94
2018-04-25T23:27:48.741Z,94.88
2018-04-25T23:30:14.600Z,94.99
2018-04-25T23:32:40.424Z,95.42
2018-04-25T23:35:06.270Z,94.92
2018-04-25T23:37:32.124Z,94.77
2018-04-25T23:39:57.985Z,95.34
2018-04-25T23:42:23.829Z,95.53
2018-04-25T23:44:49.686Z,95.17
2018-04-25T23:47:15.536Z,95.47
2018-04-25T23:49:41.428Z,95.37
2018-04-25T23:52:07.269Z,95.73
2018-04-25T23:54:33.154Z,95.68
2018-04-25T23:56:58.986Z,95.71
2018-04-25T23:59:24.805Z,95.78
